• Join FlightAware (Why Join?)
  • Login
  • US Flag 
04:39AM EDT


 

Airport Tracker/Info


-or-


 

Live Flight TrackerFlight Track Log ✈ TAM3445 ✈ 10-May-2013 ✈ SBBR / BSB - SBGL / GIG

Flight Track Log - Related Links

Times and Time Zones

All times are in EDT time to prevent confusion due to time zone crossing. See the TAM3445 flight status page for this flight to view local times or setup timezone preferences in your user account.

Time Position Orientation Groundspeed Altitude Reporting Facility
EDT Latitude Longitude Course Direction KTS MPH feet Rate Location/Type
08:14PM -18.6419 -46.1009 148° Southeast  Level Estimated
08:15PM -18.7129 -46.0537 148° Southeast  Level Estimated
08:16PM -18.7840 -46.0065 148° Southeast  Level Estimated
08:17PM -18.8550 -45.9592 148° Southeast  Level Estimated
08:18PM -18.9260 -45.9118 148° Southeast  Level Estimated
08:19PM -18.9970 -45.8645 148° Southeast  Level Estimated
08:20PM -19.0680 -45.8171 148° Southeast  Level Estimated
08:21PM -19.1390 -45.7696 148° Southeast  Level Estimated
08:22PM -19.2099 -45.7222 148° Southeast  Level Estimated
08:23PM -19.2809 -45.6746 148° Southeast  Level Estimated
08:24PM -19.3518 -45.6271 148° Southeast  Level Estimated
08:25PM -19.4227 -45.5795 148° Southeast  Level Estimated
08:26PM -19.4936 -45.5318 148° Southeast  Level Estimated
08:27PM -19.5645 -45.4841 148° Southeast  Level Estimated
08:28PM -19.6354 -45.4364 148° Southeast  Level Estimated
08:29PM -19.7063 -45.3886 148° Southeast  Level Estimated
08:30PM -19.7771 -45.3408 148° Southeast  Level Estimated
08:31PM -19.8480 -45.2930 148° Southeast  Level Estimated
08:32PM -19.9188 -45.2451 148° Southeast  Level Estimated
08:33PM -19.9897 -45.1971 148° Southeast  Level Estimated
08:34PM -20.0605 -45.1492 148° Southeast  Level Estimated
08:35PM -20.1313 -45.1011 148° Southeast  Level Estimated
08:36PM -20.2020 -45.0531 147° Southeast  Level Estimated
08:37PM -20.2728 -45.0049 147° Southeast  Level Estimated
08:38PM -20.3436 -44.9568 147° Southeast  Level Estimated
08:39PM -20.4143 -44.9086 147° Southeast  Level Estimated
08:40PM -20.4850 -44.8603 147° Southeast  Level Estimated
08:41PM -20.5558 -44.8120 147° Southeast  Level Estimated
08:42PM -20.6265 -44.7637 147° Southeast  Level Estimated
08:43PM -20.6971 -44.7153 147° Southeast  Level Estimated
08:44PM -20.7678 -44.6669 147° Southeast  Level Estimated
08:45PM -20.8385 -44.6184 147° Southeast  Level Estimated
08:46PM -20.9091 -44.5699 147° Southeast  Level Estimated
08:47PM -20.9798 -44.5213 147° Southeast  Level Estimated
08:48PM -21.0504 -44.4727 147° Southeast  Level Estimated
08:49PM -21.1210 -44.4241 147° Southeast  Level Estimated
08:50PM -21.1916 -44.3754 147° Southeast  Level Estimated
08:51PM -21.2622 -44.3266 147° Southeast  Level Estimated
08:52PM -21.3328 -44.2778 147° Southeast  Level Estimated
08:53PM -21.4033 -44.2290 147° Southeast  Level Estimated
08:54PM -21.4738 -44.1801 147° Southeast  Level Estimated
08:55PM -21.5444 -44.1312 147° Southeast  Level Estimated
08:56PM -21.6149 -44.0822 147° Southeast  Level Estimated
08:57PM -21.6854 -44.0331 147° Southeast  Level Estimated
08:58PM -21.7558 -43.9841 147° Southeast  Level Estimated
08:59PM -21.8263 -43.9349 147° Southeast  Level Estimated
09:00PM -21.8968 -43.8858 147° Southeast  Level Estimated
09:01PM -21.9672 -43.8365 147° Southeast  Level Estimated
09:02PM -22.0376 -43.7873 147° Southeast  Level Estimated
09:03PM -22.1080 -43.7379 147° Southeast  Level Estimated
09:04PM -22.1784 -43.6886 147° Southeast  Level Estimated
09:05PM -22.2488 -43.6391 147° Southeast  Level Estimated
09:06PM -22.3192 -43.5897 147° Southeast  Level Estimated
09:07PM -22.3895 -43.5402 147° Southeast  Level Estimated
09:08PM -22.4598 -43.4906 147° Southeast  Level Estimated
09:09PM -22.5302 -43.4410 147° Southeast  Level Estimated
09:10PM -22.6005 -43.3913 147° Southeast  Level Estimated
09:11PM -22.6707 -43.3416 147° Southeast  Level Estimated
09:12PM -22.7410 -43.2918 147° Southeast  Level Estimated
09:13PM -22.8089 -43.2436 147° Southeast  Level Estimated
09:14PM -22.8089 -43.2436 137° Southeast  Level Estimated
09:15PM -22.8089 -43.2436 137° Southeast  Level Estimated
09:16PM -22.8089 -43.2436 137° Southeast  Level Estimated
09:17PM -22.8089 -43.2436 137° Southeast  Level Estimated
09:18PM -22.8089 -43.2436 137° Southeast  Level Estimated
09:19PM -22.8089 -43.2436 137° Southeast  Level Estimated
09:20PM -22.8089 -43.2436 137° Southeast  Level Estimated
09:21PM -22.8089 -43.2436 137° Southeast  Level Estimated
09:22PM -22.8089 -43.2436 137° Southeast  Level Estimated
09:23PM -22.8089 -43.2436 137° Southeast  Level Estimated
09:24PM -22.8089 -43.2436 137° Southeast  Level Estimated
09:25PM -22.8089 -43.2436 137° Southeast  Level Estimated
09:26PM -22.8089 -43.2436 137° Southeast  Level Estimated
09:27PM -22.8089 -43.2436 137° Southeast  Level Estimated
09:28PM -22.8089 -43.2436 137° Southeast  Level Estimated